Time;durP1;ratioP1;P1;durP2;ratioP2;P2;SDS_P1;SDS_P2;PMS_P1;PMS_P2;Temp;Humidity;BMP_temperature;BMP_pressure;BME280_temperature;BME280_humidity;BME280_pressure;Samples;Min_cycle;Max_cycle;Signal;HPM_P1;HPM_P2
2023/01/30 00:01:02;;;;;;;17.25;9.20;;;6.60;99.90;;;;;;5046173;28;20503;-66
2023/01/30 00:03:28;;;;;;;11.98;7.13;;;6.70;99.90;;;;;;5048081;28;20048;-65
2023/01/30 00:05:54;;;;;;;20.25;9.35;;;6.80;99.90;;;;;;5047709;28;20098;-65
2023/01/30 00:08:20;;;;;;;15.13;6.90;;;6.70;99.90;;;;;;5047639;28;20044;-65
2023/01/30 00:10:46;;;;;;;22.10;9.35;;;6.80;99.90;;;;;;5046070;28;20049;-64
2023/01/30 00:13:13;;;;;;;19.40;9.77;;;6.70;99.90;;;;;;5047028;28;20048;-64
2023/01/30 00:15:39;;;;;;;13.45;7.70;;;6.80;99.90;;;;;;5028270;28;20157;-64
2023/01/30 00:18:05;;;;;;;16.50;7.28;;;6.70;99.90;;;;;;5047180;28;20051;-64
2023/01/30 00:20:31;;;;;;;18.95;9.10;;;6.80;99.90;;;;;;5045936;28;20589;-64
2023/01/30 00:22:57;;;;;;;15.93;8.77;;;6.80;99.90;;;;;;5047133;28;20463;-64
2023/01/30 00:25:24;;;;;;;16.33;8.20;;;6.80;99.90;;;;;;5044389;28;20052;-65
2023/01/30 00:27:50;;;;;;;11.95;6.38;;;6.80;99.90;;;;;;5048363;28;20075;-65
2023/01/30 00:30:16;;;;;;;13.00;7.35;;;6.90;99.90;;;;;;5048655;28;20190;-65
2023/01/30 00:32:41;;;;;;;17.45;7.50;;;6.90;99.90;;;;;;5047476;28;20047;-65
2023/01/30 00:35:07;;;;;;;16.60;7.50;;;6.90;99.90;;;;;;5027615;28;20033;-65
2023/01/30 00:37:33;;;;;;;22.63;7.85;;;6.90;99.90;;;;;;5046270;28;20275;-64
2023/01/30 00:39:59;;;;;;;14.35;6.55;;;6.90;99.90;;;;;;5046004;28;20036;-65
2023/01/30 00:48:13;;;;;;;12.85;5.95;;;6.80;99.90;;;;;;4996262;28;20518;-65
2023/01/30 00:50:41;;;;;;;12.65;5.93;;;6.60;99.90;;;;;;5017206;28;20065;-66
2023/01/30 00:53:12;;;;;;;14.93;6.43;;;6.50;1.00;;;;;;5014136;28;20134;-66
2023/01/30 00:55:38;;;;;;;16.98;8.00;;;6.50;1.00;;;;;;5046710;28;20044;-65
2023/01/30 00:58:04;;;;;;;21.30;9.95;;;6.40;13.60;;;;;;5046905;28;20754;-65
2023/01/30 01:00:29;;;;;;;15.35;7.13;;;6.30;96.90;;;;;;5049565;28;20051;-65
2023/01/30 01:02:55;;;;;;;18.80;7.78;;;6.30;99.90;;;;;;5046986;28;20036;-65
2023/01/30 01:05:21;;;;;;;14.82;7.93;;;6.40;99.90;;;;;;5047117;28;20399;-66
2023/01/30 01:07:46;;;;;;;17.42;9.13;;;6.30;99.90;;;;;;5046595;28;20040;-66
2023/01/30 01:10:15;;;;;;;25.30;10.88;;;6.30;99.90;;;;;;5044680;28;20547;-66
2023/01/30 01:12:44;;;;;;;21.83;10.10;;;6.20;99.90;;;;;;5047111;28;20074;-65
2023/01/30 01:15:11;;;;;;;15.98;7.15;;;6.30;99.90;;;;;;5047829;28;20313;-64
2023/01/30 01:17:38;;;;;;;15.63;8.25;;;6.30;99.90;;;;;;5050409;28;20051;-65
2023/01/30 01:20:04;;;;;;;23.95;10.93;;;6.20;99.90;;;;;;5049270;28;20796;-65
2023/01/30 01:22:30;;;;;;;21.92;10.65;;;6.20;99.90;;;;;;5032091;28;20624;-65
2023/01/30 01:24:56;;;;;;;20.25;10.30;;;6.20;99.90;;;;;;5049710;28;20051;-65
2023/01/30 01:27:22;;;;;;;12.10;7.15;;;6.30;99.90;;;;;;5049069;28;20045;-65
2023/01/30 01:29:47;;;;;;;14.85;7.15;;;6.30;99.90;;;;;;5049693;28;20669;-66
2023/01/30 01:32:13;;;;;;;9.20;5.00;;;6.30;99.90;;;;;;5046970;28;20039;-65
2023/01/30 01:34:38;;;;;;;18.42;8.27;;;6.20;99.90;;;;;;5048562;28;20044;-65
2023/01/30 01:37:04;;;;;;;15.90;8.48;;;6.30;99.90;;;;;;5031641;28;20079;-65
2023/01/30 01:42:14;;;;;;;14.07;7.43;;;6.40;99.90;;;;;;5033551;28;20044;-66
2023/01/30 01:45:10;;;;;;;10.82;4.68;;;6.40;99.90;;;;;;5049488;28;20086;-65
2023/01/30 01:47:39;;;;;;;14.85;7.07;;;6.30;99.90;;;;;;5032334;28;20047;-65
2023/01/30 01:50:09;;;;;;;10.88;5.95;;;6.50;99.90;;;;;;5050729;28;20143;-65
2023/01/30 01:52:35;;;;;;;14.05;5.38;;;6.30;99.90;;;;;;5047786;28;20072;-64
2023/01/30 01:55:06;;;;;;;8.63;4.80;;;6.40;99.90;;;;;;5050711;28;20202;-66
2023/01/30 01:57:33;;;;;;;11.85;6.05;;;6.30;99.90;;;;;;5047589;28;20716;-65
2023/01/30 02:00:05;;;;;;;14.68;6.60;;;6.40;99.90;;;;;;5029898;28;20052;-66
2023/01/30 02:02:32;;;;;;;9.30;4.75;;;6.50;99.90;;;;;;5031483;28;20506;-65
2023/01/30 02:05:01;;;;;;;16.45;8.23;;;6.60;99.90;;;;;;5046885;28;20072;-65
2023/01/30 02:07:42;;;;;;;11.38;4.90;;;6.60;99.90;;;;;;5047085;28;20052;-65
2023/01/30 02:10:14;;;;;;;14.80;6.05;;;6.40;99.90;;;;;;5046241;28;20199;-64
2023/01/30 02:12:40;;;;;;;20.02;6.63;;;6.40;99.90;;;;;;5050853;28;20040;-64
2023/01/30 02:15:07;;;;;;;18.73;7.68;;;6.50;99.90;;;;;;5049668;28;20093;-63
2023/01/30 02:17:32;;;;;;;26.23;7.63;;;6.50;99.90;;;;;;5031945;28;20581;-65
2023/01/30 02:20:12;;;;;;;19.23;8.57;;;6.50;99.90;;;;;;5051328;28;20043;-64
2023/01/30 02:23:09;;;;;;;18.95;6.88;;;6.70;99.90;;;;;;5050183;28;20340;-64
2023/01/30 02:25:43;;;;;;;28.83;9.05;;;6.50;99.90;;;;;;5049703;28;20681;-64
2023/01/30 02:28:46;;;;;;;22.40;6.03;;;6.70;99.90;;;;;;5051933;28;20154;-63
2023/01/30 02:31:18;;;;;;;25.27;7.15;;;6.60;99.90;;;;;;5033450;28;20441;-63
2023/01/30 02:33:52;;;;;;;30.20;7.82;;;6.60;99.90;;;;;;5049839;28;20087;-63
2023/01/30 02:36:44;;;;;;;22.80;6.85;;;6.80;99.90;;;;;;5049560;28;20495;-64
2023/01/30 02:39:34;;;;;;;29.65;6.18;;;6.60;99.90;;;;;;5047931;28;20233;-64
2023/01/30 02:42:35;;;;;;;30.55;7.20;;;6.80;99.90;;;;;;5051300;28;20056;-64
2023/01/30 02:45:30;;;;;;;27.42;6.30;;;6.60;99.90;;;;;;5011542;28;20528;-63
2023/01/30 02:48:02;;;;;;;25.10;4.93;;;6.60;99.90;;;;;;5049420;28;20383;-62
2023/01/30 02:50:52;;;;;;;32.25;6.30;;;6.90;99.90;;;;;;5051503;28;20047;-63
2023/01/30 02:53:18;;;;;;;21.60;5.25;;;6.80;99.90;;;;;;5050762;28;20052;-63
2023/01/30 02:55:44;;;;;;;26.27;5.63;;;6.70;99.90;;;;;;5049693;28;20252;-63
2023/01/30 02:58:10;;;;;;;30.70;6.05;;;6.80;99.90;;;;;;5049977;28;20306;-64
2023/01/30 03:01:13;;;;;;;21.05;3.90;;;6.80;99.90;;;;;;5051573;28;20471;-64
2023/01/30 03:03:51;;;;;;;22.70;5.53;;;6.80;99.90;;;;;;5031605;28;20040;-63
2023/01/30 03:06:54;;;;;;;25.50;4.60;;;6.80;99.90;;;;;;5051233;28;20044;-64
2023/01/30 03:09:54;;;;;;;25.45;4.03;;;6.90;99.90;;;;;;5048403;28;20527;-64
2023/01/30 03:12:57;;;;;;;28.15;4.50;;;6.80;99.90;;;;;;5047949;28;20033;-64
2023/01/30 03:15:32;;;;;;;23.70;3.25;;;6.80;99.90;;;;;;5057073;28;20391;-64
2023/01/30 03:18:00;;;;;;;20.15;3.95;;;6.70;99.90;;;;;;5048970;28;20255;-64
2023/01/30 03:20:25;;;;;;;30.70;4.07;;;6.90;99.90;;;;;;5049112;28;20053;-64
2023/01/30 03:22:53;;;;;;;20.73;3.88;;;6.70;99.90;;;;;;5049627;28;20040;-64
2023/01/30 03:25:22;;;;;;;27.08;4.13;;;6.70;99.90;;;;;;5048386;28;20216;-64
2023/01/30 03:27:50;;;;;;;22.50;2.38;;;6.80;99.90;;;;;;5047017;28;20041;-64
2023/01/30 03:30:16;;;;;;;23.08;2.75;;;6.50;99.90;;;;;;5048300;28;20119;-64
2023/01/30 03:32:42;;;;;;;22.20;2.45;;;6.40;40.20;;;;;;5046182;28;20032;-63
2023/01/30 03:35:08;;;;;;;13.60;1.42;;;6.30;99.90;;;;;;5048437;28;20039;-64
2023/01/30 03:37:34;;;;;;;15.20;2.28;;;6.20;88.20;;;;;;5046471;28;20454;-64
2023/01/30 03:40:00;;;;;;;20.23;2.72;;;6.10;99.90;;;;;;5031220;28;20060;-65
2023/01/30 03:42:26;;;;;;;22.52;3.08;;;6.20;99.90;;;;;;5048732;28;20047;-64
2023/01/30 03:44:52;;;;;;;20.17;3.50;;;6.20;99.90;;;;;;5046786;28;20036;-64
2023/01/30 03:47:17;;;;;;;25.85;4.22;;;6.30;99.90;;;;;;5048071;28;20160;-64
2023/01/30 03:49:43;;;;;;;31.20;4.70;;;6.40;99.90;;;;;;5028680;28;20131;-64
2023/01/30 03:52:09;;;;;;;26.15;4.43;;;6.50;99.90;;;;;;5046229;28;20040;-64
2023/01/30 03:54:34;;;;;;;26.65;4.18;;;6.50;92.70;;;;;;5046231;28;20052;-64
2023/01/30 03:57:00;;;;;;;31.33;4.40;;;6.40;1.00;;;;;;5048711;28;20045;-64
2023/01/30 03:59:26;;;;;;;28.90;4.35;;;6.40;1.00;;;;;;5046199;28;20430;-64
2023/01/30 04:01:51;;;;;;;24.70;3.30;;;6.30;1.00;;;;;;5047985;28;20238;-63
2023/01/30 04:04:17;;;;;;;38.15;4.22;;;6.30;1.00;;;;;;5047041;28;20117;-64
2023/01/30 04:06:43;;;;;;;32.92;4.75;;;6.30;99.90;;;;;;5047654;28;20152;-64
2023/01/30 04:09:08;;;;;;;35.10;4.53;;;6.20;99.90;;;;;;5048167;28;20154;-64
2023/01/30 04:11:34;;;;;;;27.35;4.18;;;6.30;99.90;;;;;;5029206;28;20049;-63
2023/01/30 04:14:00;;;;;;;29.77;4.03;;;6.20;99.90;;;;;;5048514;28;20549;-64
2023/01/30 04:16:26;;;;;;;40.38;4.57;;;6.30;99.90;;;;;;5047412;28;20045;-64
2023/01/30 04:18:54;;;;;;;37.00;4.88;;;6.20;99.90;;;;;;5048364;28;20087;-64
2023/01/30 04:21:20;;;;;;;23.80;3.55;;;6.30;99.90;;;;;;5046909;28;20132;-64
2023/01/30 04:23:46;;;;;;;38.60;4.82;;;6.30;99.90;;;;;;5023137;28;20059;-65
2023/01/30 04:26:15;;;;;;;33.75;5.32;;;6.20;99.90;;;;;;5047219;28;20521;-65
2023/01/30 04:28:40;;;;;;;39.03;4.97;;;6.20;99.90;;;;;;5045867;28;20044;-65
2023/01/30 04:31:06;;;;;;;41.20;4.93;;;6.10;99.90;;;;;;5046503;28;20055;-65
2023/01/30 04:33:35;;;;;;;43.15;5.80;;;6.10;99.90;;;;;;5046458;28;20087;-65
2023/01/30 04:36:02;;;;;;;29.90;3.90;;;6.00;99.90;;;;;;5038032;28;20040;-65
2023/01/30 04:38:29;;;;;;;39.55;3.83;;;5.90;99.90;;;;;;5046253;28;20044;-65
2023/01/30 04:40:56;;;;;;;36.50;4.68;;;5.80;99.90;;;;;;5050171;28;20044;-65
2023/01/30 04:43:23;;;;;;;28.80;3.60;;;5.80;99.90;;;;;;5050802;28;20048;-65
2023/01/30 04:45:50;;;;;;;29.40;3.85;;;5.80;99.90;;;;;;5050659;28;20036;-65
2023/01/30 04:48:17;;;;;;;35.08;4.47;;;5.90;99.90;;;;;;5034465;28;20036;-65
2023/01/30 04:50:46;;;;;;;33.03;5.00;;;5.90;99.90;;;;;;5034365;28;20036;-65
2023/01/30 04:53:12;;;;;;;29.58;4.25;;;5.90;99.90;;;;;;5052222;28;20131;-64
2023/01/30 04:55:38;;;;;;;37.70;4.22;;;5.90;99.90;;;;;;5052509;28;21001;-64
2023/01/30 04:58:03;;;;;;;29.80;3.88;;;5.90;99.90;;;;;;5051520;28;20087;-64
2023/01/30 05:00:29;;;;;;;36.53;4.50;;;5.90;99.90;;;;;;5052746;28;20123;-64
2023/01/30 05:02:55;;;;;;;32.95;4.35;;;6.00;99.90;;;;;;5050211;28;20040;-64
2023/01/30 05:05:22;;;;;;;28.05;3.95;;;6.00;99.90;;;;;;5035037;28;20053;-65
2023/01/30 05:07:48;;;;;;;33.00;4.63;;;6.10;90.70;;;;;;5053448;28;20123;-65
2023/01/30 05:10:15;;;;;;;35.53;4.45;;;6.10;99.90;;;;;;5051559;28;20056;-65
2023/01/30 05:12:41;;;;;;;32.55;4.40;;;6.10;65.50;;;;;;5051499;28;20044;-65
2023/01/30 05:15:08;;;;;;;30.80;3.88;;;6.10;85.40;;;;;;5053906;28;20540;-64
2023/01/30 05:17:34;;;;;;;34.28;4.60;;;6.20;69.30;;;;;;5052199;28;20223;-65
2023/01/30 05:20:00;;;;;;;39.20;5.70;;;6.10;19.20;;;;;;5052101;28;20051;-65
2023/01/30 05:22:26;;;;;;;30.52;4.53;;;6.10;43.70;;;;;;5053162;28;20563;-65
2023/01/30 05:24:51;;;;;;;32.35;5.70;;;6.10;81.10;;;;;;5052262;28;20427;-65
2023/01/30 05:27:17;;;;;;;30.98;4.00;;;6.10;61.30;;;;;;5034265;28;20147;-65
2023/01/30 05:29:43;;;;;;;40.88;5.45;;;5.90;1.00;;;;;;5050727;28;20036;-65
2023/01/30 05:32:12;;;;;;;39.15;4.75;;;6.00;6.10;;;;;;5051397;28;20247;-65
2023/01/30 05:34:38;;;;;;;36.88;5.65;;;6.00;1.00;;;;;;5051419;28;20368;-65
2023/01/30 05:37:04;;;;;;;36.38;4.70;;;6.00;6.70;;;;;;5050960;28;20131;-65
2023/01/30 05:39:29;;;;;;;34.40;4.40;;;6.00;1.00;;;;;;5016478;28;20041;-64
2023/01/30 05:41:55;;;;;;;36.60;3.95;;;6.00;1.00;;;;;;5051084;28;20078;-65
2023/01/30 05:44:20;;;;;;;30.73;3.88;;;6.00;1.00;;;;;;5052936;28;20040;-65
2023/01/30 05:46:46;;;;;;;35.05;4.22;;;5.90;1.00;;;;;;5034520;28;20072;-65
2023/01/30 05:49:12;;;;;;;37.53;4.82;;;5.90;1.00;;;;;;5051786;28;20607;-65
2023/01/30 05:51:37;;;;;;;34.90;4.93;;;5.80;1.00;;;;;;5050579;28;20086;-65
2023/01/30 05:54:03;;;;;;;30.42;3.17;;;5.80;1.00;;;;;;5052012;28;20080;-65
2023/01/30 05:56:32;;;;;;;33.90;4.80;;;5.80;1.00;;;;;;5050320;28;20399;-64
2023/01/30 05:58:58;;;;;;;31.42;4.15;;;5.80;1.00;;;;;;5051027;28;20048;-64
2023/01/30 06:01:25;;;;;;;29.83;4.18;;;5.80;1.00;;;;;;5050593;28;20052;-64
2023/01/30 06:03:51;;;;;;;33.65;4.47;;;5.80;1.00;;;;;;5054826;28;21089;-64
2023/01/30 06:06:17;;;;;;;33.00;4.00;;;5.90;1.00;;;;;;5050680;28;20241;-64
2023/01/30 06:08:43;;;;;;;27.40;3.72;;;5.90;1.00;;;;;;5055055;28;20271;-64
2023/01/30 06:11:11;;;;;;;34.45;5.38;;;6.00;1.00;;;;;;5051802;28;20040;-64
2023/01/30 06:13:37;;;;;;;32.55;3.78;;;6.10;1.00;;;;;;5055094;28;20071;-65
2023/01/30 06:16:07;;;;;;;24.35;3.42;;;6.20;1.00;;;;;;5054965;28;20136;-65
2023/01/30 06:18:33;;;;;;;29.98;3.70;;;6.10;1.00;;;;;;5056925;28;20346;-64
2023/01/30 06:20:59;;;;;;;30.15;3.88;;;6.20;1.00;;;;;;5055682;28;20279;-63
2023/01/30 06:23:24;;;;;;;41.72;4.43;;;6.10;1.00;;;;;;5054852;28;21558;-64
2023/01/30 06:25:51;;;;;;;31.20;3.47;;;6.10;1.00;;;;;;5057019;28;20552;-63
2023/01/30 06:28:18;;;;;;;25.00;4.43;;;6.00;1.00;;;;;;5053851;28;20044;-63
2023/01/30 06:30:43;;;;;;;33.42;4.10;;;6.00;1.00;;;;;;5054555;28;20072;-63
2023/01/30 06:33:10;;;;;;;31.45;3.55;;;5.90;1.00;;;;;;5055246;28;20190;-64
2023/01/30 06:35:40;;;;;;;31.63;3.97;;;5.90;1.00;;;;;;5054930;28;20037;-64
2023/01/30 06:38:08;;;;;;;30.45;4.20;;;5.90;1.00;;;;;;5053187;28;20162;-64
2023/01/30 06:40:34;;;;;;;40.20;4.38;;;5.80;1.00;;;;;;5028837;28;20118;-64
2023/01/30 06:42:59;;;;;;;34.58;4.78;;;5.80;1.00;;;;;;5054877;28;20668;-64
2023/01/30 06:45:25;;;;;;;34.10;4.10;;;5.70;1.00;;;;;;5054261;28;20502;-64
2023/01/30 06:47:52;;;;;;;36.92;4.93;;;5.70;1.00;;;;;;5038579;28;20040;-64
2023/01/30 06:50:21;;;;;;;29.55;3.97;;;5.80;1.00;;;;;;5055594;28;20456;-64
2023/01/30 06:52:49;;;;;;;29.15;3.60;;;5.80;1.00;;;;;;5053668;28;20040;-64
2023/01/30 06:55:17;;;;;;;26.48;3.58;;;5.90;1.00;;;;;;5055104;28;20335;-64
2023/01/30 06:57:43;;;;;;;28.98;4.35;;;5.90;99.90;;;;;;5055676;28;20075;-65
2023/01/30 07:00:15;;;;;;;29.33;3.60;;;6.00;1.00;;;;;;5055294;28;20050;-64
2023/01/30 07:02:41;;;;;;;31.80;4.20;;;5.90;1.00;;;;;;5056789;28;20460;-64
2023/01/30 07:05:08;;;;;;;31.83;3.80;;;5.90;99.90;;;;;;5055352;28;20586;-63
2023/01/30 07:07:34;;;;;;;33.30;4.22;;;5.80;99.90;;;;;;5055354;28;20044;-64
2023/01/30 07:10:00;;;;;;;35.70;4.28;;;5.80;99.90;;;;;;5054183;28;20067;-64
2023/01/30 07:12:26;;;;;;;38.90;5.00;;;5.80;1.00;;;;;;5055357;28;20116;-64
2023/01/30 07:14:53;;;;;;;34.35;4.18;;;5.80;1.00;;;;;;5054900;28;20877;-63
2023/01/30 07:17:22;;;;;;;31.58;4.07;;;5.80;1.00;;;;;;5054532;28;20072;-63
2023/01/30 07:19:48;;;;;;;33.88;4.82;;;5.90;1.00;;;;;;5054791;28;20047;-63
2023/01/30 07:22:14;;;;;;;41.88;5.32;;;6.00;1.00;;;;;;5054269;28;20485;-63
2023/01/30 07:24:41;;;;;;;38.90;4.43;;;6.00;1.00;;;;;;5056722;28;20040;-63
2023/01/30 07:27:11;;;;;;;35.15;4.40;;;6.00;99.90;;;;;;5054823;28;20052;-63
2023/01/30 07:29:37;;;;;;;27.63;4.03;;;6.10;99.90;;;;;;5048948;28;20506;-65
2023/01/30 07:32:04;;;;;;;37.45;4.72;;;6.10;99.90;;;;;;5048836;28;20189;-65
2023/01/30 07:34:30;;;;;;;34.00;4.68;;;6.10;99.90;;;;;;5052480;28;20457;-65
2023/01/30 07:36:56;;;;;;;31.75;4.25;;;6.10;99.90;;;;;;5052585;28;20248;-64
2023/01/30 07:39:22;;;;;;;28.60;4.20;;;6.10;99.90;;;;;;5053389;28;20036;-64
2023/01/30 07:41:47;;;;;;;26.75;4.03;;;6.20;99.90;;;;;;5055387;28;20741;-64
2023/01/30 07:44:13;;;;;;;39.70;4.40;;;6.10;99.90;;;;;;5055501;28;20158;-63
2023/01/30 07:46:39;;;;;;;43.97;6.78;;;6.20;99.90;;;;;;5055768;28;20465;-63
2023/01/30 07:49:06;;;;;;;34.67;4.65;;;6.20;99.90;;;;;;5053385;28;21088;-64
2023/01/30 07:51:32;;;;;;;37.17;5.47;;;6.20;99.90;;;;;;5053554;28;20043;-65
2023/01/30 07:53:58;;;;;;;36.90;4.57;;;6.20;99.90;;;;;;5036173;28;20313;-65
2023/01/30 07:56:23;;;;;;;35.58;5.45;;;6.30;99.90;;;;;;5036412;28;20045;-63
2023/01/30 07:58:50;;;;;;;37.25;5.30;;;6.30;99.90;;;;;;5054572;28;20204;-63
2023/01/30 08:01:16;;;;;;;32.13;4.25;;;6.30;99.90;;;;;;5053848;28;20273;-64
2023/01/30 08:03:43;;;;;;;37.30;5.18;;;6.30;99.90;;;;;;5049049;28;20119;-63
2023/01/30 08:06:09;;;;;;;38.53;4.90;;;6.30;99.90;;;;;;5051803;28;20495;-64
2023/01/30 08:08:35;;;;;;;32.22;4.68;;;6.30;99.90;;;;;;5052409;28;20044;-66
2023/01/30 08:11:01;;;;;;;39.70;5.10;;;6.30;99.90;;;;;;5034904;28;20416;-64
2023/01/30 08:13:27;;;;;;;27.92;4.28;;;6.30;99.90;;;;;;5053203;28;20197;-63
2023/01/30 08:15:53;;;;;;;38.10;5.65;;;6.30;99.90;;;;;;5052667;28;20446;-64
2023/01/30 08:18:18;;;;;;;27.67;4.18;;;6.30;99.90;;;;;;5051596;28;20456;-64
2023/01/30 08:20:44;;;;;;;34.67;4.57;;;6.30;99.90;;;;;;5052014;28;20352;-65
2023/01/30 08:23:10;;;;;;;40.63;5.20;;;6.40;99.90;;;;;;5053782;28;20679;-64
2023/01/30 08:25:36;;;;;;;36.35;5.15;;;6.40;99.90;;;;;;5050796;28;20051;-64
2023/01/30 08:28:03;;;;;;;38.60;4.93;;;6.50;99.90;;;;;;5054621;28;20045;-64
2023/01/30 08:30:29;;;;;;;28.05;4.20;;;6.50;99.90;;;;;;5051791;28;20048;-63
2023/01/30 08:32:56;;;;;;;29.73;4.25;;;6.50;99.90;;;;;;5052067;28;20126;-62
2023/01/30 08:35:22;;;;;;;31.25;4.50;;;6.60;99.90;;;;;;5049502;28;20143;-64
2023/01/30 08:37:49;;;;;;;32.67;3.80;;;6.60;99.90;;;;;;5037471;28;21823;-64
2023/01/30 08:40:15;;;;;;;35.70;4.93;;;6.60;99.90;;;;;;5039408;28;20043;-63
2023/01/30 08:42:44;;;;;;;36.45;4.40;;;6.60;99.90;;;;;;5043011;28;20099;-62
2023/01/30 08:45:10;;;;;;;33.28;4.35;;;6.60;99.90;;;;;;5045540;28;20060;-64
2023/01/30 08:47:36;;;;;;;30.83;4.78;;;6.70;99.90;;;;;;5022844;28;20470;-64
2023/01/30 08:50:03;;;;;;;35.92;5.05;;;6.70;99.90;;;;;;5029259;28;20044;-64
2023/01/30 08:52:29;;;;;;;30.95;4.18;;;6.60;99.90;;;;;;5027827;28;20036;-64
2023/01/30 08:54:54;;;;;;;32.05;5.18;;;6.70;99.90;;;;;;5049079;28;20056;-63
2023/01/30 08:57:20;;;;;;;33.67;4.88;;;6.70;99.90;;;;;;5046003;28;20119;-63
2023/01/30 08:59:46;;;;;;;30.73;3.92;;;6.80;99.90;;;;;;5049422;28;20351;-62
2023/01/30 09:02:12;;;;;;;27.90;4.50;;;6.80;99.90;;;;;;5030190;28;20142;-65
2023/01/30 09:04:38;;;;;;;34.83;4.93;;;6.80;99.90;;;;;;5046412;28;20046;-64
2023/01/30 09:07:04;;;;;;;31.40;4.38;;;6.80;99.90;;;;;;5030758;28;20067;-64
2023/01/30 09:09:30;;;;;;;27.20;3.47;;;6.90;99.90;;;;;;5050231;28;20148;-64
2023/01/30 09:11:56;;;;;;;25.17;4.45;;;6.90;99.90;;;;;;5048525;28;20040;-64
2023/01/30 09:14:21;;;;;;;27.05;3.95;;;6.90;99.90;;;;;;5048351;28;20045;-65
2023/01/30 09:16:54;;;;;;;23.85;3.60;;;6.90;99.90;;;;;;5049105;28;20032;-63
2023/01/30 09:19:25;;;;;;;28.70;4.35;;;6.80;99.90;;;;;;5049061;28;20461;-63
2023/01/30 09:21:51;;;;;;;34.05;4.75;;;6.60;99.90;;;;;;5031317;28;20052;-63
2023/01/30 09:24:18;;;;;;;34.78;5.65;;;6.60;99.90;;;;;;5031210;28;20040;-65
2023/01/30 09:26:44;;;;;;;36.92;4.22;;;6.70;99.90;;;;;;5051086;28;20048;-64
2023/01/30 09:29:13;;;;;;;32.88;4.72;;;6.90;99.90;;;;;;5048186;28;20181;-64
2023/01/30 09:31:39;;;;;;;35.72;5.65;;;6.80;99.90;;;;;;5049671;28;20520;-64
2023/01/30 09:34:06;;;;;;;31.77;4.38;;;6.80;99.90;;;;;;5050056;28;20147;-63
2023/01/30 09:36:31;;;;;;;32.92;4.90;;;6.70;99.90;;;;;;5034363;28;20045;-63
2023/01/30 09:38:57;;;;;;;35.35;4.60;;;6.80;99.90;;;;;;5054272;28;20037;-63
2023/01/30 09:41:33;;;;;;;32.22;4.40;;;6.90;99.90;;;;;;5052743;28;20103;-64
2023/01/30 09:44:17;;;;;;;27.23;3.15;;;7.00;99.90;;;;;;5051407;28;20036;-64
2023/01/30 09:47:01;;;;;;;30.00;4.15;;;7.10;99.90;;;;;;5051907;28;20045;-64
2023/01/30 09:49:43;;;;;;;33.28;5.45;;;7.10;99.90;;;;;;5053153;28;20076;-64
2023/01/30 09:52:46;;;;;;;38.78;5.13;;;6.90;99.90;;;;;;5051754;28;20033;-65
2023/01/30 09:55:19;;;;;;;43.45;6.43;;;6.70;99.90;;;;;;5052291;28;20040;-65
2023/01/30 09:57:47;;;;;;;36.28;6.55;;;6.60;99.90;;;;;;5051650;28;20091;-65
2023/01/30 10:00:16;;;;;;;36.38;4.95;;;6.60;99.90;;;;;;5052675;28;20041;-63
2023/01/30 10:03:04;;;;;;;29.75;5.38;;;6.50;99.90;;;;;;5053495;28;20553;-63
2023/01/30 10:05:54;;;;;;;34.88;5.32;;;6.40;99.90;;;;;;5051480;28;20534;-63
2023/01/30 10:08:30;;;;;;;35.38;5.60;;;6.30;99.90;;;;;;5052430;28;20045;-65
2023/01/30 10:10:56;;;;;;;31.13;5.30;;;6.40;99.90;;;;;;5051847;28;20078;-64
2023/01/30 10:13:28;;;;;;;37.60;6.40;;;6.50;99.90;;;;;;5050209;28;20071;-64
2023/01/30 10:16:20;;;;;;;30.02;4.75;;;6.50;99.90;;;;;;5051712;28;20296;-64
2023/01/30 10:19:10;;;;;;;28.55;4.65;;;6.80;99.90;;;;;;5053306;28;20507;-64
2023/01/30 10:21:59;;;;;;;38.50;5.30;;;7.10;99.90;;;;;;5051624;28;20093;-64
2023/01/30 10:25:11;;;;;;;29.92;4.13;;;7.50;99.90;;;;;;5052578;28;20041;-64
2023/01/30 10:27:45;;;;;;;33.88;5.55;;;7.50;99.90;;;;;;4998910;28;20048;-64
2023/01/30 10:30:15;;;;;;;34.88;5.90;;;7.50;99.90;;;;;;5051877;28;20091;-63
2023/01/30 10:32:56;;;;;;;31.17;4.55;;;7.20;99.90;;;;;;5050454;28;20037;-63
2023/01/30 10:35:25;;;;;;;25.98;3.83;;;6.80;99.90;;;;;;5051018;28;20041;-64
2023/01/30 10:38:25;;;;;;;26.35;3.58;;;6.70;99.90;;;;;;5052520;28;20117;-63
2023/01/30 10:41:25;;;;;;;24.17;3.88;;;6.80;99.90;;;;;;5052982;28;20044;-63
2023/01/30 10:44:12;;;;;;;22.02;3.58;;;7.40;99.90;;;;;;5050800;28;20044;-64
2023/01/30 10:47:19;;;;;;;24.40;3.50;;;7.90;99.90;;;;;;5050159;28;20445;-62
2023/01/30 10:49:59;;;;;;;26.88;3.20;;;8.20;99.90;;;;;;4966206;28;20066;-64
2023/01/30 10:52:43;;;;;;;29.08;3.47;;;8.10;43.50;;;;;;5049556;28;20052;-64
2023/01/30 10:55:28;;;;;;;20.45;2.55;;;8.50;99.90;;;;;;5052176;28;20037;-64
2023/01/30 10:58:12;;;;;;;25.70;2.65;;;8.70;13.00;;;;;;5033318;28;20094;-62
2023/01/30 11:00:40;;;;;;;;;;;8.80;16.10;;;;;;5050360;28;20036;-63
2023/01/30 11:03:18;;;;;;;18.15;2.00;;;9.00;99.90;;;;;;5048933;28;20691;-63
2023/01/30 11:05:51;;;;;;;24.17;3.17;;;9.00;99.40;;;;;;5047975;28;20401;-65
2023/01/30 11:08:26;;;;;;;21.10;2.95;;;8.80;94.80;;;;;;5048706;28;20056;-65
2023/01/30 11:10:54;;;;;;;25.08;3.33;;;9.00;49.60;;;;;;5052486;28;20714;-63
2023/01/30 11:13:25;;;;;;;21.02;3.15;;;8.60;25.00;;;;;;5055527;28;20036;-63
2023/01/30 11:15:55;;;;;;;23.83;3.40;;;8.50;52.20;;;;;;5035990;28;20048;-63
2023/01/30 11:18:22;;;;;;;32.40;4.30;;;8.40;92.50;;;;;;5050988;28;20055;-64
2023/01/30 11:21:10;;;;;;;38.70;4.78;;;8.30;99.90;;;;;;5050481;28;20048;-64
2023/01/30 11:23:42;;;;;;;27.95;3.58;;;8.40;99.90;;;;;;5051003;28;20048;-63
2023/01/30 11:26:24;;;;;;;28.80;4.25;;;8.30;99.90;;;;;;5034073;28;20044;-63
2023/01/30 11:28:50;;;;;;;36.20;5.40;;;8.00;99.90;;;;;;5054235;28;20599;-63
2023/01/30 11:31:27;;;;;;;31.15;4.43;;;7.80;99.90;;;;;;5055480;28;20059;-64
2023/01/30 11:34:10;;;;;;;26.60;3.80;;;7.60;99.90;;;;;;5036597;28;20028;-63
2023/01/30 11:36:37;;;;;;;19.05;3.13;;;7.40;99.90;;;;;;5051405;28;20111;-64
2023/01/30 11:39:12;;;;;;;21.48;3.63;;;7.40;99.90;;;;;;5036415;28;20118;-63
2023/01/30 11:41:57;;;;;;;23.02;3.47;;;7.40;99.90;;;;;;5054926;28;20097;-64
2023/01/30 11:44:39;;;;;;;24.08;3.25;;;7.30;99.90;;;;;;5053667;28;20390;-63
2023/01/30 11:47:34;;;;;;;24.30;3.65;;;7.30;99.90;;;;;;5053856;28;20490;-64
2023/01/30 11:50:01;;;;;;;33.72;3.92;;;7.30;99.90;;;;;;5034244;28;20121;-64
2023/01/30 11:52:35;;;;;;;30.13;3.63;;;7.30;99.90;;;;;;5052158;28;20037;-64
2023/01/30 11:55:06;;;;;;;27.30;3.85;;;7.40;99.90;;;;;;5053334;28;20302;-64
2023/01/30 11:57:57;;;;;;;30.10;4.82;;;7.90;99.90;;;;;;5050762;28;20071;-64
2023/01/30 12:00:36;;;;;;;30.08;4.22;;;8.40;47.30;;;;;;5051690;28;20131;-63
2023/01/30 12:03:09;;;;;;;39.40;5.82;;;8.40;99.90;;;;;;5050357;28;20052;-64
2023/01/30 12:05:41;;;;;;;28.52;4.15;;;8.10;88.90;;;;;;5052957;28;20087;-65
2023/01/30 12:08:19;;;;;;;27.13;4.55;;;8.20;99.90;;;;;;5051224;28;20522;-64
2023/01/30 12:10:48;;;;;;;33.45;5.15;;;8.10;74.90;;;;;;5052383;28;20048;-64
2023/01/30 12:13:27;;;;;;;41.17;5.30;;;8.20;32.50;;;;;;5050717;28;20045;-64
2023/01/30 12:16:10;;;;;;;33.47;4.75;;;8.50;1.00;;;;;;5030866;28;20047;-63
2023/01/30 12:18:50;;;;;;;35.10;4.22;;;8.60;1.00;;;;;;5053443;28;20040;-63
2023/01/30 12:21:40;;;;;;;31.23;5.13;;;8.40;77.60;;;;;;5050359;28;20052;-63
2023/01/30 12:24:09;;;;;;;27.75;4.22;;;8.00;1.00;;;;;;5049475;28;20063;-63
2023/01/30 12:26:44;;;;;;;28.48;4.78;;;7.90;4.70;;;;;;5053977;28;20181;-63
2023/01/30 12:29:41;;;;;;;32.97;3.90;;;8.10;99.90;;;;;;5053094;28;20628;-63
2023/01/30 12:32:16;;;;;;;28.60;4.55;;;8.40;19.00;;;;;;5025078;28;20423;-64
2023/01/30 12:34:44;;;;;;;30.60;4.35;;;8.30;1.40;;;;;;5047709;28;20855;-65
2023/01/30 12:37:30;;;;;;;26.38;4.13;;;8.20;3.10;;;;;;5051737;28;20516;-63
2023/01/30 12:40:04;;;;;;;23.05;3.58;;;8.50;1.00;;;;;;5045885;28;21004;-64
2023/01/30 12:42:58;;;;;;;39.20;5.18;;;9.00;2.50;;;;;;5040443;28;20287;-64
2023/01/30 12:45:26;;;;;;;28.98;4.95;;;9.10;3.20;;;;;;5048985;28;20047;-64
2023/01/30 12:48:10;;;;;;;26.70;4.00;;;9.00;1.00;;;;;;5044831;28;20056;-64
2023/01/30 12:50:48;;;;;;;;;;;9.50;1.00;;;;;;5047278;28;20393;-64
2023/01/30 12:53:32;;;;;;;28.60;4.25;;;9.50;1.00;;;;;;5046060;28;19920;-64
2023/01/30 12:56:16;;;;;;;25.45;4.10;;;9.50;10.10;;;;;;5049124;28;20047;-63
2023/01/30 12:58:58;;;;;;;30.90;5.25;;;9.30;1.00;;;;;;5047618;28;20044;-65
2023/01/30 13:02:01;;;;;;;33.83;6.00;;;9.20;30.10;;;;;;5050036;28;20037;-64
2023/01/30 13:04:51;;;;;;;31.52;4.88;;;8.70;1.00;;;;;;5044281;28;20094;-64
2023/01/30 13:07:49;;;;;;;33.80;4.82;;;8.50;59.60;;;;;;5047861;28;20045;-64
2023/01/30 13:10:34;;;;;;;35.38;5.43;;;8.10;99.90;;;;;;5052495;28;20342;-65
2023/01/30 13:13:26;;;;;;;38.38;5.72;;;7.90;99.90;;;;;;5056005;28;20085;-64
2023/01/30 13:16:10;;;;;;;39.28;5.75;;;7.90;99.90;;;;;;5052810;28;20044;-64
2023/01/30 13:18:45;;;;;;;37.08;5.63;;;7.80;99.90;;;;;;5036350;28;20040;-64
2023/01/30 13:21:18;;;;;;;31.17;4.68;;;7.90;99.90;;;;;;5053438;28;20044;-64